createdAt,value
2023-04-27T00:03:40.137Z,8.07
2023-04-27T00:09:42.159Z,9.40
2023-04-27T00:15:45.401Z,5.37
2023-04-27T00:21:47.272Z,9.70
2023-04-27T00:27:49.238Z,10.10
2023-04-27T00:33:51.205Z,7.17
2023-04-27T00:39:53.070Z,4.10
2023-04-27T00:45:55.124Z,4.47
2023-04-27T00:51:57.078Z,8.17
2023-04-27T00:57:59.057Z,5.57
2023-04-27T01:04:01.866Z,7.17
2023-04-27T01:10:05.944Z,6.10
2023-04-27T01:16:08.503Z,7.67
2023-04-27T01:22:10.424Z,8.80
2023-04-27T01:28:12.601Z,12.50
2023-04-27T01:34:14.504Z,10.03
2023-04-27T01:40:17.696Z,7.60
2023-04-27T01:46:19.655Z,7.80
2023-04-27T01:52:21.588Z,8.40
2023-04-27T01:58:23.514Z,7.23
2023-04-27T02:04:25.925Z,7.33
2023-04-27T02:10:27.927Z,6.17
2023-04-27T02:16:29.950Z,7.87
2023-04-27T02:22:31.839Z,5.80
2023-04-27T02:28:33.776Z,6.83
2023-04-27T02:34:36.203Z,7.80
2023-04-27T02:40:38.247Z,7.40
2023-04-27T02:46:40.209Z,8.90
2023-04-27T02:52:42.171Z,6.77
2023-04-27T02:58:44.851Z,6.70
2023-04-27T03:04:47.299Z,9.67
2023-04-27T03:10:49.227Z,6.87
2023-04-27T03:16:51.178Z,6.00
2023-04-27T03:22:53.188Z,6.90
2023-04-27T03:28:55.090Z,6.73
2023-04-27T03:34:57.090Z,9.47
2023-04-27T03:40:59.043Z,10.03
2023-04-27T03:47:01.656Z,11.43
2023-04-27T03:53:03.884Z,13.63
2023-04-27T03:59:05.880Z,7.60
2023-04-27T04:05:08.898Z,9.80
2023-04-27T04:11:10.957Z,9.60
2023-04-27T04:17:12.825Z,10.03
2023-04-27T04:23:14.714Z,15.40
2023-04-27T04:29:16.877Z,12.10
2023-04-27T04:35:19.772Z,13.10
2023-04-27T04:41:21.688Z,9.53
2023-04-27T04:47:23.610Z,9.30
2023-04-27T04:53:26.177Z,10.47
2023-04-27T04:59:29.391Z,12.23
2023-04-27T05:05:32.179Z,7.60
2023-04-27T05:11:34.098Z,12.80
2023-04-27T05:17:36.138Z,49.73
2023-04-27T05:23:38.026Z,38.60
2023-04-27T05:29:39.912Z,17.47
2023-04-27T05:35:41.840Z,15.80
2023-04-27T05:41:43.715Z,10.23
2023-04-27T05:47:45.926Z,9.67
2023-04-27T05:53:47.888Z,9.50
2023-04-27T05:59:49.771Z,18.07
2023-04-27T06:06:00.354Z,12.27
2023-04-27T06:12:04.335Z,7.10
2023-04-27T06:18:06.262Z,7.80
2023-04-27T06:24:08.236Z,9.07
2023-04-27T06:30:10.939Z,9.60
2023-04-27T06:36:12.876Z,11.43
2023-04-27T06:42:14.828Z,11.93
2023-04-27T06:48:17.164Z,10.10
2023-04-27T06:54:19.624Z,12.87
2023-04-27T07:00:21.985Z,9.27
2023-04-27T07:06:25.590Z,10.70
2023-04-27T07:12:27.891Z,10.53
2023-04-27T07:18:29.775Z,8.30
2023-04-27T07:24:31.664Z,8.37
2023-04-27T07:30:36.409Z,13.83
2023-04-27T07:36:38.565Z,5.90
2023-04-27T07:42:42.035Z,3.93
2023-04-27T07:48:44.942Z,6.47
2023-04-27T07:54:46.897Z,9.37
2023-04-27T08:00:48.780Z,3.80
2023-04-27T08:06:51.386Z,4.43
2023-04-27T08:12:53.567Z,3.67
2023-04-27T08:18:55.726Z,4.50
2023-04-27T08:24:57.653Z,8.60
2023-04-27T08:30:59.871Z,3.80
2023-04-27T08:37:03.298Z,5.47
2023-04-27T08:43:05.195Z,3.17
2023-04-27T08:49:08.010Z,3.00
2023-04-27T08:55:10.162Z,4.40
2023-04-27T09:01:12.208Z,4.30
2023-04-27T09:07:17.681Z,3.43
2023-04-27T09:13:19.582Z,3.60
2023-04-27T09:19:29.275Z,3.43
2023-04-27T09:25:33.400Z,3.60
2023-04-27T09:31:36.106Z,2.87
2023-04-27T09:37:38.112Z,3.40
2023-04-27T09:43:41.376Z,2.40
2023-04-27T09:49:43.376Z,2.93
2023-04-27T09:55:59.732Z,2.33
2023-04-27T10:02:17.158Z,3.87
2023-04-27T10:08:25.503Z,6.93
2023-04-27T10:14:29.072Z,3.00
2023-04-27T10:20:36.073Z,2.40
2023-04-27T10:26:48.258Z,3.93
2023-04-27T10:33:05.166Z,3.87
2023-04-27T10:39:18.450Z,2.63
2023-04-27T10:45:31.122Z,3.93
2023-04-27T10:51:33.858Z,3.97
2023-04-27T10:57:45.116Z,7.67
2023-04-27T11:03:59.325Z,4.93
2023-04-27T11:10:01.262Z,4.03
2023-04-27T11:16:05.359Z,4.17
2023-04-27T11:22:07.654Z,3.83
2023-04-27T11:28:19.174Z,4.00
2023-04-27T11:34:23.944Z,5.73
2023-04-27T11:40:27.178Z,4.77
2023-04-27T11:46:29.194Z,3.97
2023-04-27T11:52:32.840Z,4.90
2023-04-27T11:58:36.270Z,5.10
2023-04-27T12:04:38.432Z,3.53
2023-04-27T12:10:41.790Z,4.47
2023-04-27T12:16:43.738Z,3.97
2023-04-27T12:22:45.675Z,3.97
2023-04-27T12:28:47.608Z,2.20
2023-04-27T12:34:49.483Z,3.43
2023-04-27T12:40:51.460Z,3.67
2023-04-27T12:46:53.455Z,3.73
2023-04-27T12:52:55.462Z,5.73
2023-04-27T12:58:57.767Z,4.60
2023-04-27T13:04:59.777Z,4.50
2023-04-27T13:11:01.809Z,3.30
2023-04-27T13:17:04.254Z,2.43
2023-04-27T13:23:06.671Z,2.40
2023-04-27T13:29:08.603Z,5.43
2023-04-27T13:35:10.689Z,4.47
2023-04-27T13:41:12.674Z,3.20
2023-04-27T13:47:14.687Z,2.10
2023-04-27T13:53:17.074Z,4.10
2023-04-27T13:59:19.064Z,3.70
2023-04-27T14:05:21.069Z,3.27
2023-04-27T14:11:23.392Z,3.20
2023-04-27T14:17:25.653Z,4.93
2023-04-27T14:23:27.595Z,5.03
2023-04-27T14:29:29.482Z,3.40
2023-04-27T14:35:35.073Z,3.80
2023-04-27T14:41:37.491Z,3.73
2023-04-27T14:47:39.521Z,6.40
2023-04-27T14:53:41.489Z,4.50
2023-04-27T14:59:44.392Z,3.00
2023-04-27T15:05:46.623Z,6.93
2023-04-27T15:11:48.530Z,4.00
2023-04-27T15:17:50.590Z,3.20
2023-04-27T15:23:52.506Z,2.80
2023-04-27T15:29:55.281Z,6.03
2023-04-27T15:35:58.985Z,5.27
2023-04-27T15:42:01.457Z,4.30
2023-04-27T15:48:03.781Z,9.40
2023-04-27T15:54:05.893Z,3.83
2023-04-27T16:00:12.036Z,3.40
2023-04-27T16:06:13.939Z,3.20
2023-04-27T16:12:15.872Z,2.50
2023-04-27T16:18:17.818Z,2.30
2023-04-27T16:24:19.824Z,2.70
2023-04-27T16:30:23.615Z,3.93
2023-04-27T16:36:25.549Z,2.40
2023-04-27T16:42:27.469Z,5.20
2023-04-27T16:48:30.220Z,3.10
2023-04-27T16:54:32.116Z,5.03
2023-04-27T17:00:34.142Z,4.90
2023-04-27T17:06:36.202Z,6.47
2023-04-27T17:12:38.256Z,6.27
2023-04-27T17:18:40.625Z,3.40
2023-04-27T17:24:42.581Z,4.40
2023-04-27T17:30:44.504Z,4.03
2023-04-27T17:36:46.540Z,3.20
2023-04-27T17:42:49.453Z,2.87
2023-04-27T17:48:51.562Z,2.40
2023-04-27T17:54:53.503Z,10.93
2023-04-27T18:00:55.634Z,4.10
2023-04-27T18:06:57.608Z,5.03
2023-04-27T18:12:59.777Z,3.57
2023-04-27T18:19:01.723Z,5.70
2023-04-27T18:25:04.064Z,1.67
2023-04-27T18:31:17.582Z,3.90
2023-04-27T18:37:19.645Z,3.00
2023-04-27T18:43:21.564Z,3.80
2023-04-27T18:49:23.610Z,4.20
2023-04-27T18:55:25.541Z,2.47
2023-04-27T19:01:31.592Z,4.50
2023-04-27T19:07:33.762Z,1.90
2023-04-27T19:13:35.772Z,2.70
2023-04-27T19:19:37.684Z,5.17
2023-04-27T19:25:40.416Z,7.10
2023-04-27T19:31:42.384Z,3.93
2023-04-27T19:37:44.339Z,4.03
2023-04-27T19:43:46.210Z,2.40
2023-04-27T19:49:48.118Z,3.33
2023-04-27T19:55:50.095Z,5.00
2023-04-27T20:01:52.334Z,6.03
2023-04-27T20:07:54.305Z,4.07
2023-04-27T20:13:56.187Z,3.03
2023-04-27T20:19:58.070Z,4.53
2023-04-27T20:26:00.134Z,3.67
2023-04-27T20:32:02.347Z,5.63
2023-04-27T20:38:04.466Z,4.33
2023-04-27T20:44:07.424Z,4.83
2023-04-27T20:50:09.696Z,1.97
2023-04-27T20:56:11.979Z,6.43
2023-04-27T21:02:15.097Z,3.23
2023-04-27T21:08:17.369Z,7.00
2023-04-27T21:14:19.340Z,4.20
2023-04-27T21:20:21.390Z,4.67
2023-04-27T21:26:23.296Z,3.63
2023-04-27T21:32:25.176Z,2.70
2023-04-27T21:38:27.112Z,4.33
2023-04-27T21:44:29.016Z,6.00
2023-04-27T21:50:31.109Z,2.87
2023-04-27T21:56:33.010Z,5.03
2023-04-27T22:02:35.037Z,8.80
2023-04-27T22:08:37.180Z,7.93
2023-04-27T22:14:39.065Z,9.40
2023-04-27T22:20:42.338Z,5.67
2023-04-27T22:26:44.379Z,9.37
2023-04-27T22:32:46.594Z,3.20
2023-04-27T22:38:50.749Z,5.30
2023-04-27T22:44:52.672Z,10.23
2023-04-27T22:50:54.551Z,3.90
2023-04-27T22:56:57.370Z,5.53
2023-04-27T23:02:59.602Z,7.73
2023-04-27T23:09:03.080Z,6.27
2023-04-27T23:15:05.685Z,3.73
2023-04-27T23:21:07.610Z,8.63
2023-04-27T23:27:09.515Z,5.10
2023-04-27T23:33:11.381Z,6.77
2023-04-27T23:39:13.255Z,4.60
2023-04-27T23:45:15.286Z,5.70
2023-04-27T23:51:17.360Z,6.30
2023-04-27T23:57:19.245Z,9.00
